Time;durP1;ratioP1;P1;durP2;ratioP2;P2;SDS_P1;SDS_P2;PMS_P1;PMS_P2;Temp;Humidity;BMP_temperature;BMP_pressure;BME280_temperature;BME280_humidity;BME280_pressure;Samples;Min_cycle;Max_cycle;Signal;HPM_P1;HPM_P2
2022/12/08 00:01:16;;;;;;;3.50;2.58;;;5.40;99.90;;;;;;5059093;28;20037;-35
2022/12/08 00:03:42;;;;;;;3.65;1.88;;;5.40;99.90;;;;;;5058038;28;20067;-37
2022/12/08 00:09:22;;;;;;;6.15;2.67;;;5.40;99.90;;;;;;5063671;28;20044;-32
2022/12/08 00:11:58;;;;;;;3.28;2.35;;;5.40;99.90;;;;;;5072566;28;20032;-36
2022/12/08 00:14:35;;;;;;;2.83;2.22;;;5.40;99.90;;;;;;5072609;28;20028;-35
2022/12/08 00:17:02;;;;;;;4.15;2.40;;;5.40;99.90;;;;;;5072429;28;20028;-38
2022/12/08 00:19:29;;;;;;;5.90;2.15;;;5.40;99.90;;;;;;5072318;28;20545;-37
2022/12/08 00:21:55;;;;;;;2.63;2.20;;;5.40;99.90;;;;;;5072524;28;20032;-33
2022/12/08 00:24:22;;;;;;;2.83;2.60;;;5.40;99.90;;;;;;5072436;28;20411;-38
2022/12/08 00:26:48;;;;;;;1.95;1.77;;;5.40;99.90;;;;;;5071604;28;20032;-39
2022/12/08 00:29:14;;;;;;;4.65;1.90;;;5.40;99.90;;;;;;5072402;28;20447;-35
2022/12/08 00:31:40;;;;;;;1.73;1.45;;;5.40;99.90;;;;;;5072383;28;20028;-35
2022/12/08 00:34:05;;;;;;;6.25;1.98;;;5.30;99.90;;;;;;5063524;28;20040;-37
2022/12/08 00:36:32;;;;;;;2.20;1.80;;;5.30;99.90;;;;;;5061249;28;20032;-35
2022/12/08 00:38:57;;;;;;;3.67;1.77;;;5.20;99.90;;;;;;5072477;28;20044;-44
2022/12/08 00:44:12;;;;;;;5.82;1.60;;;5.20;99.90;;;;;;5052491;28;20095;-44
2022/12/08 00:46:38;;;;;;;1.92;1.73;;;5.20;99.90;;;;;;5052294;28;20514;-46
2022/12/08 00:49:05;;;;;;;1.73;1.35;;;5.10;99.90;;;;;;5067592;28;20049;-45
2022/12/08 00:51:31;;;;;;;3.67;1.13;;;5.10;99.90;;;;;;5072120;28;20051;-44
2022/12/08 00:53:57;;;;;;;0.80;0.80;;;5.20;99.90;;;;;;5072023;28;20048;-42
2022/12/08 00:56:22;;;;;;;2.33;1.00;;;5.20;99.90;;;;;;5074878;28;20495;-43
2022/12/08 00:58:48;;;;;;;2.63;0.77;;;5.10;99.90;;;;;;5070754;28;20464;-43
2022/12/08 01:01:14;;;;;;;2.70;0.80;;;5.10;99.90;;;;;;5060981;28;20060;-42
2022/12/08 01:03:41;;;;;;;0.50;0.50;;;5.10;99.90;;;;;;5055844;28;20021;-42
2022/12/08 01:06:07;;;;;;;2.30;0.85;;;5.10;99.90;;;;;;5074224;28;20028;-42
2022/12/08 01:08:33;;;;;;;1.30;0.50;;;5.10;99.90;;;;;;5075739;28;20115;-41
2022/12/08 01:11:14;;;;;;;2.25;0.80;;;5.00;99.90;;;;;;5075747;28;20445;-40
2022/12/08 01:13:40;;;;;;;0.82;0.82;;;4.90;99.90;;;;;;5075880;28;20475;-42
2022/12/08 01:16:07;;;;;;;8.38;0.95;;;4.90;99.90;;;;;;5075209;28;20472;-41
2022/12/08 01:18:33;;;;;;;0.47;0.43;;;5.00;99.90;;;;;;5065463;28;20477;-40
2022/12/08 01:21:06;;;;;;;0.43;0.32;;;5.00;99.90;;;;;;5065468;28;20040;-41
2022/12/08 01:23:33;;;;;;;0.47;0.38;;;5.00;99.90;;;;;;5055742;28;20516;-43
2022/12/08 01:26:05;;;;;;;0.57;0.57;;;5.00;99.90;;;;;;5055559;28;20078;-44
2022/12/08 01:28:34;;;;;;;0.50;0.30;;;5.00;99.90;;;;;;5054829;28;20029;-41
2022/12/08 01:31:00;;;;;;;1.98;0.75;;;5.00;99.90;;;;;;5055394;28;20037;-40
2022/12/08 01:33:27;;;;;;;1.17;1.08;;;4.90;99.90;;;;;;5055199;28;20052;-44
2022/12/08 01:35:54;;;;;;;2.55;1.00;;;4.90;99.90;;;;;;5064987;28;20538;-42
2022/12/08 01:38:20;;;;;;;2.17;1.17;;;4.90;99.90;;;;;;5073298;28;20074;-40
2022/12/08 01:40:46;;;;;;;2.05;1.00;;;4.90;99.90;;;;;;5075192;28;20036;-41
2022/12/08 01:43:16;;;;;;;3.15;1.48;;;5.00;99.90;;;;;;5056583;28;20548;-42
2022/12/08 01:45:42;;;;;;;3.67;1.92;;;5.00;99.90;;;;;;5055281;28;20025;-75
2022/12/08 01:48:13;;;;;;;2.05;1.88;;;5.00;99.90;;;;;;5055198;28;20029;-41
2022/12/08 01:50:41;;;;;;;4.53;1.50;;;5.00;99.90;;;;;;5069500;28;20527;-42
2022/12/08 01:53:31;;;;;;;4.68;1.88;;;5.00;99.90;;;;;;5073555;28;20068;-40
2022/12/08 01:56:12;;;;;;;4.13;1.80;;;5.00;99.90;;;;;;5053937;28;20543;-41
2022/12/08 01:58:42;;;;;;;2.13;1.92;;;5.00;99.90;;;;;;5053405;28;20485;-39
2022/12/08 02:01:08;;;;;;;6.35;2.50;;;5.00;99.90;;;;;;5070980;28;20111;-41
2022/12/08 02:03:41;;;;;;;2.10;1.88;;;5.00;99.90;;;;;;5074121;28;20504;-36
2022/12/08 02:06:07;;;;;;;5.25;2.00;;;5.00;99.90;;;;;;5072832;28;20021;-39
2022/12/08 02:08:34;;;;;;;4.47;2.15;;;5.00;99.90;;;;;;5060686;28;20033;-34
2022/12/08 02:11:00;;;;;;;3.00;2.13;;;5.00;99.90;;;;;;5054504;28;20032;-33
2022/12/08 02:13:26;;;;;;;2.63;1.73;;;5.00;99.90;;;;;;5054354;28;20385;-35
2022/12/08 02:16:16;;;;;;;3.42;2.53;;;4.90;99.90;;;;;;5054438;28;20070;-35
2022/12/08 02:18:57;;;;;;;3.25;2.00;;;5.00;99.90;;;;;;5054401;28;20508;-34
2022/12/08 02:21:55;;;;;;;2.35;1.90;;;5.00;99.90;;;;;;5054612;28;20047;-44
2022/12/08 02:24:46;;;;;;;2.15;1.52;;;5.10;99.90;;;;;;5056131;28;20043;-37
2022/12/08 02:27:30;;;;;;;6.38;1.90;;;5.10;99.90;;;;;;5070437;28;20553;-35
2022/12/08 02:30:09;;;;;;;3.45;2.17;;;5.10;99.90;;;;;;5073677;28;20035;-34
2022/12/08 02:32:59;;;;;;;4.63;1.75;;;5.20;99.90;;;;;;5053779;28;20647;-36
2022/12/08 02:35:49;;;;;;;3.95;1.75;;;5.20;99.90;;;;;;5055568;28;20404;-37
2022/12/08 02:38:26;;;;;;;2.40;1.90;;;5.20;99.90;;;;;;5073888;28;20512;-43
2022/12/08 02:41:31;;;;;;;1.73;1.60;;;5.20;99.90;;;;;;5073978;28;20059;-40
2022/12/08 02:44:16;;;;;;;1.73;1.17;;;5.30;99.90;;;;;;5035576;28;20029;-38
2022/12/08 02:46:57;;;;;;;1.52;1.33;;;5.30;99.90;;;;;;5057111;28;20025;-37
2022/12/08 02:49:28;;;;;;;1.42;1.33;;;5.30;99.90;;;;;;5070616;28;20020;-36
2022/12/08 02:52:12;;;;;;;1.10;0.90;;;5.30;99.90;;;;;;5056911;28;20157;-38
2022/12/08 02:54:42;;;;;;;1.50;0.90;;;5.30;99.90;;;;;;5052373;28;20481;-35
2022/12/08 02:57:21;;;;;;;0.80;0.80;;;5.30;99.90;;;;;;5053057;28;20547;-35
2022/12/08 02:59:55;;;;;;;0.47;0.45;;;5.20;99.90;;;;;;5053843;28;20485;-33
2022/12/08 03:02:40;;;;;;;1.42;0.98;;;5.20;99.90;;;;;;5053497;28;20082;-34
2022/12/08 03:05:20;;;;;;;3.55;0.70;;;5.20;99.90;;;;;;5053821;28;20308;-34
2022/12/08 03:08:04;;;;;;;0.75;0.60;;;5.10;99.90;;;;;;5073722;28;20491;-37
2022/12/08 03:10:35;;;;;;;0.85;0.65;;;5.20;99.90;;;;;;5069201;28;20040;-34
2022/12/08 03:13:08;;;;;;;1.83;0.80;;;5.20;99.90;;;;;;5053268;28;20065;-38
2022/12/08 03:15:36;;;;;;;2.50;0.50;;;5.20;99.90;;;;;;5053201;28;20047;-37
2022/12/08 03:18:04;;;;;;;6.40;0.75;;;5.20;99.90;;;;;;5063353;28;20037;-32
2022/12/08 03:20:33;;;;;;;1.95;0.63;;;5.10;99.90;;;;;;5069890;28;20020;-35
2022/12/08 03:23:00;;;;;;;2.28;0.30;;;5.00;99.90;;;;;;5072774;28;20476;-36
2022/12/08 03:25:30;;;;;;;6.43;0.50;;;4.80;99.90;;;;;;5073301;28;20090;-32
2022/12/08 03:27:57;;;;;;;0.38;0.38;;;4.70;99.90;;;;;;5073036;28;20430;-31
2022/12/08 03:30:23;;;;;;;2.90;0.40;;;4.60;99.90;;;;;;5070059;28;20538;-35
2022/12/08 03:32:59;;;;;;;1.33;0.50;;;4.60;99.90;;;;;;5051447;28;20107;-34
2022/12/08 03:35:32;;;;;;;0.30;0.30;;;4.60;99.90;;;;;;5053376;28;20029;-34
2022/12/08 03:38:09;;;;;;;0.40;0.20;;;4.50;99.90;;;;;;5072938;28;20476;-32
2022/12/08 03:40:36;;;;;;;1.10;0.32;;;4.50;99.90;;;;;;5069964;28;20025;-33
2022/12/08 03:43:02;;;;;;;5.32;0.55;;;4.40;99.90;;;;;;5059871;28;20037;-34
2022/12/08 03:45:28;;;;;;;1.73;0.30;;;4.40;99.90;;;;;;5072879;28;20476;-45
2022/12/08 03:47:54;;;;;;;2.13;0.30;;;4.50;99.90;;;;;;5072770;28;20078;-32
2022/12/08 03:50:20;;;;;;;2.42;0.30;;;4.60;99.90;;;;;;5071363;28;20036;-71
2022/12/08 03:52:45;;;;;;;2.17;0.40;;;4.60;99.90;;;;;;5070907;28;20496;-43
2022/12/08 03:55:11;;;;;;;1.48;0.30;;;4.60;99.90;;;;;;5072860;28;20380;-40
2022/12/08 03:57:37;;;;;;;1.08;0.40;;;4.60;99.90;;;;;;5073038;28;20380;-40
2022/12/08 04:00:05;;;;;;;1.30;0.20;;;4.60;99.90;;;;;;5072819;28;20056;-42
2022/12/08 04:02:30;;;;;;;0.65;0.45;;;4.70;99.90;;;;;;5071582;28;20024;-42
2022/12/08 04:04:56;;;;;;;2.58;0.45;;;4.70;99.90;;;;;;5072802;28;20104;-42
2022/12/08 04:07:22;;;;;;;1.90;0.55;;;4.70;99.90;;;;;;5069375;28;20024;-42
2022/12/08 04:09:47;;;;;;;2.92;0.73;;;4.80;99.90;;;;;;5070298;28;20036;-40
2022/12/08 04:12:13;;;;;;;4.38;1.00;;;4.80;99.90;;;;;;5053466;28;20029;-40
2022/12/08 04:14:38;;;;;;;2.47;1.08;;;4.90;99.90;;;;;;5052599;28;20025;-40
2022/12/08 04:17:04;;;;;;;4.90;1.00;;;4.90;99.90;;;;;;5052385;28;20477;-40
2022/12/08 04:19:29;;;;;;;2.42;1.42;;;4.90;99.90;;;;;;5052522;28;20021;-38
2022/12/08 04:21:55;;;;;;;3.10;1.50;;;4.90;99.90;;;;;;5052695;28;20448;-41
2022/12/08 04:24:21;;;;;;;3.67;1.58;;;4.90;99.90;;;;;;5057259;28;20041;-39
2022/12/08 04:26:48;;;;;;;4.00;1.52;;;4.90;99.90;;;;;;5072739;28;20017;-41
2022/12/08 04:29:14;;;;;;;1.20;0.70;;;4.80;99.90;;;;;;5073754;28;20511;-47
2022/12/08 04:31:39;;;;;;;1.10;0.40;;;4.70;99.90;;;;;;5061666;28;20098;-41
2022/12/08 04:34:05;;;;;;;1.25;0.47;;;4.70;99.90;;;;;;5056302;28;20112;-39
2022/12/08 04:36:31;;;;;;;2.30;0.30;;;4.60;99.90;;;;;;5059005;28;20021;-40
2022/12/08 04:38:56;;;;;;;3.45;0.30;;;4.50;99.90;;;;;;5056279;28;20045;-39
2022/12/08 04:41:22;;;;;;;0.73;0.20;;;4.40;99.90;;;;;;5055320;28;20029;-43
2022/12/08 04:43:48;;;;;;;3.67;0.13;;;4.40;99.90;;;;;;5068124;28;20079;-44
2022/12/08 04:46:14;;;;;;;4.30;0.50;;;4.40;99.90;;;;;;5076067;28;20028;-41
2022/12/08 04:48:40;;;;;;;2.90;0.32;;;4.40;99.90;;;;;;5074337;28;20086;-34
2022/12/08 04:51:06;;;;;;;0.00;0.00;;;4.40;99.90;;;;;;5074353;28;20028;-32
2022/12/08 04:53:32;;;;;;;0.52;0.17;;;4.40;99.90;;;;;;5075682;28;20043;-34
2022/12/08 04:55:57;;;;;;;3.63;0.40;;;4.40;99.90;;;;;;5074902;28;20468;-38
2022/12/08 04:58:23;;;;;;;0.00;0.00;;;4.40;99.90;;;;;;5075036;28;20350;-36
2022/12/08 05:00:49;;;;;;;0.32;0.22;;;4.40;99.90;;;;;;5075842;28;20499;-37
2022/12/08 05:03:16;;;;;;;0.10;0.10;;;4.40;99.90;;;;;;5066414;28;20455;-37
2022/12/08 05:05:43;;;;;;;3.65;0.17;;;4.40;99.90;;;;;;5075790;28;20020;-34
2022/12/08 05:08:09;;;;;;;0.10;0.08;;;4.30;99.90;;;;;;5057747;28;20061;-31
2022/12/08 05:10:35;;;;;;;1.58;0.20;;;4.30;99.90;;;;;;5054275;28;20041;-37
2022/12/08 05:13:01;;;;;;;2.60;0.22;;;4.20;99.90;;;;;;5055261;28;20374;-49
2022/12/08 05:15:27;;;;;;;0.10;0.10;;;4.10;99.90;;;;;;5054311;28;20043;-36
2022/12/08 05:17:52;;;;;;;2.10;0.10;;;4.10;99.90;;;;;;5055226;28;20461;-41
2022/12/08 05:20:18;;;;;;;2.65;0.13;;;4.10;99.90;;;;;;5055739;28;20043;-40
2022/12/08 05:22:44;;;;;;;0.38;0.10;;;4.00;99.90;;;;;;5067932;28;20031;-41
2022/12/08 05:25:09;;;;;;;0.85;0.10;;;3.90;99.90;;;;;;5075373;28;20036;-40
2022/12/08 05:27:36;;;;;;;0.68;0.10;;;3.90;99.90;;;;;;5075309;28;20036;-43
2022/12/08 05:30:01;;;;;;;0.40;0.13;;;3.80;99.90;;;;;;5075679;28;20025;-39
2022/12/08 05:32:27;;;;;;;4.78;0.60;;;3.80;99.90;;;;;;5055689;28;20025;-39
2022/12/08 05:34:52;;;;;;;1.02;0.80;;;3.80;99.90;;;;;;5065517;28;20024;-42
2022/12/08 05:37:18;;;;;;;1.30;1.00;;;3.80;99.90;;;;;;5059692;28;20025;-41
2022/12/08 05:39:44;;;;;;;0.82;0.82;;;3.80;99.90;;;;;;5055331;28;20465;-58
2022/12/08 05:42:10;;;;;;;1.52;0.63;;;3.80;99.90;;;;;;5053956;28;20488;-47
2022/12/08 05:44:35;;;;;;;3.42;1.08;;;3.90;99.90;;;;;;5055131;28;20489;-40
2022/12/08 05:47:01;;;;;;;2.42;1.42;;;3.80;99.90;;;;;;5054778;28;20400;-38
2022/12/08 05:49:26;;;;;;;3.03;1.88;;;3.80;99.90;;;;;;5054937;28;20043;-40
2022/12/08 05:51:52;;;;;;;4.20;1.05;;;3.80;99.90;;;;;;5055674;28;20449;-40
2022/12/08 05:54:18;;;;;;;2.67;1.33;;;3.70;99.90;;;;;;5074921;28;20481;-40
2022/12/08 05:56:43;;;;;;;0.90;0.90;;;3.70;99.90;;;;;;5074878;28;20385;-55
2022/12/08 05:59:09;;;;;;;2.55;1.25;;;3.70;99.90;;;;;;5073572;28;20035;-40
2022/12/08 06:01:35;;;;;;;2.42;1.00;;;3.70;99.90;;;;;;5067294;28;20025;-38
2022/12/08 06:04:02;;;;;;;2.25;1.40;;;3.80;99.90;;;;;;5054711;28;20040;-38
2022/12/08 06:06:28;;;;;;;2.90;1.75;;;3.80;99.90;;;;;;5054697;28;20485;-39
2022/12/08 06:08:54;;;;;;;1.30;1.20;;;3.90;99.90;;;;;;5054466;28;20420;-39
2022/12/08 06:11:22;;;;;;;3.90;1.67;;;3.90;99.90;;;;;;5054063;28;20036;-39
2022/12/08 06:13:48;;;;;;;3.70;1.20;;;3.80;99.90;;;;;;5061029;28;20024;-38
2022/12/08 06:16:14;;;;;;;5.15;1.02;;;3.90;99.90;;;;;;5074565;28;20483;-41
2022/12/08 06:18:40;;;;;;;1.60;0.90;;;3.80;99.90;;;;;;5064628;28;20393;-40
2022/12/08 06:21:09;;;;;;;5.50;1.27;;;3.90;99.90;;;;;;5055286;28;20025;-39
2022/12/08 06:23:35;;;;;;;4.97;0.50;;;3.90;99.90;;;;;;5054819;28;20499;-39
2022/12/08 06:26:06;;;;;;;5.38;0.82;;;3.90;99.90;;;;;;5074273;28;20033;-39
2022/12/08 06:28:32;;;;;;;2.45;0.80;;;3.90;99.90;;;;;;5065902;28;20044;-38
2022/12/08 06:30:58;;;;;;;5.30;0.80;;;3.90;99.90;;;;;;5054216;28;20371;-48
2022/12/08 06:33:25;;;;;;;0.88;0.68;;;3.80;99.90;;;;;;5054132;28;20064;-40
2022/12/08 06:35:51;;;;;;;5.70;0.60;;;3.80;99.90;;;;;;5058044;28;20469;-38
2022/12/08 06:38:17;;;;;;;0.40;0.40;;;3.90;99.90;;;;;;5061908;28;20523;-40
2022/12/08 06:40:43;;;;;;;1.35;0.45;;;3.90;99.90;;;;;;5071639;28;20020;-70
2022/12/08 06:43:08;;;;;;;0.88;0.43;;;3.90;99.90;;;;;;5073779;28;20047;-40
2022/12/08 06:45:34;;;;;;;1.00;0.55;;;3.90;99.90;;;;;;5073860;28;20037;-39
2022/12/08 06:48:01;;;;;;;7.22;0.55;;;3.90;99.90;;;;;;5073564;28;20040;-39
2022/12/08 06:50:27;;;;;;;0.65;0.40;;;3.90;99.90;;;;;;5068620;28;20033;-37
2022/12/08 06:52:53;;;;;;;0.95;0.28;;;3.90;99.90;;;;;;5068271;28;20404;-38
2022/12/08 06:55:19;;;;;;;0.85;0.20;;;3.90;99.90;;;;;;5072547;28;20113;-39
2022/12/08 06:57:44;;;;;;;0.30;0.08;;;3.90;99.90;;;;;;5072607;28;20583;-39
2022/12/08 07:00:11;;;;;;;0.68;0.20;;;3.80;99.90;;;;;;5073577;28;20193;-39
2022/12/08 07:02:36;;;;;;;0.95;0.17;;;3.70;99.90;;;;;;5073550;28;20388;-40
2022/12/08 07:05:02;;;;;;;3.75;0.25;;;3.70;99.90;;;;;;5073478;28;20028;-37
2022/12/08 07:07:28;;;;;;;0.65;0.40;;;3.60;99.90;;;;;;5073190;28;20028;-41
2022/12/08 07:09:53;;;;;;;0.13;0.13;;;3.70;99.90;;;;;;5072872;28;20028;-39
2022/12/08 07:12:22;;;;;;;0.25;0.10;;;3.70;99.90;;;;;;5072990;28;20032;-38
2022/12/08 07:14:47;;;;;;;0.43;0.15;;;3.70;99.90;;;;;;5072200;28;20028;-40
2022/12/08 07:17:13;;;;;;;3.50;0.10;;;3.70;99.90;;;;;;5073233;28;20099;-39
2022/12/08 07:19:38;;;;;;;5.20;0.88;;;3.70;99.90;;;;;;5072886;28;20024;-39
2022/12/08 07:22:04;;;;;;;0.50;0.20;;;3.70;99.90;;;;;;5073147;28;20028;-39
2022/12/08 07:24:30;;;;;;;3.15;0.30;;;3.60;99.90;;;;;;5073176;28;20078;-39
2022/12/08 07:26:55;;;;;;;1.27;0.15;;;3.60;99.90;;;;;;5073065;28;20056;-52
2022/12/08 07:29:21;;;;;;;1.35;0.17;;;3.70;99.90;;;;;;5073302;28;20372;-40
2022/12/08 07:31:47;;;;;;;1.55;0.10;;;3.60;99.90;;;;;;5058557;28;20009;-41
2022/12/08 07:34:13;;;;;;;0.45;0.32;;;3.50;99.90;;;;;;5053232;28;20322;-41
2022/12/08 07:36:38;;;;;;;0.25;0.25;;;3.50;99.90;;;;;;5052978;28;20029;-42
2022/12/08 07:39:04;;;;;;;0.52;0.40;;;3.50;99.90;;;;;;5052940;28;20540;-40
2022/12/08 07:41:30;;;;;;;0.73;0.45;;;3.50;99.90;;;;;;5052921;28;20405;-40
2022/12/08 07:43:56;;;;;;;0.40;0.30;;;3.50;99.90;;;;;;5071734;28;20163;-40
2022/12/08 07:46:23;;;;;;;0.38;0.20;;;3.60;99.90;;;;;;5060543;28;20052;-40
2022/12/08 07:48:50;;;;;;;0.32;0.15;;;3.60;99.90;;;;;;5067087;28;20120;-40
2022/12/08 07:51:16;;;;;;;0.20;0.20;;;3.60;99.90;;;;;;5070485;28;20031;-37
2022/12/08 07:53:44;;;;;;;0.85;0.30;;;3.60;99.90;;;;;;5059136;28;20037;-39
2022/12/08 07:56:12;;;;;;;1.73;1.05;;;3.60;99.90;;;;;;5052756;28;20465;-37
2022/12/08 07:58:37;;;;;;;2.15;0.32;;;3.60;99.90;;;;;;5052497;28;20024;-40
2022/12/08 08:01:03;;;;;;;0.22;0.22;;;3.60;99.90;;;;;;5052368;28;20029;-39
2022/12/08 08:03:29;;;;;;;0.40;0.40;;;3.60;99.90;;;;;;5069048;28;20533;-39
2022/12/08 08:06:02;;;;;;;0.30;0.28;;;3.50;99.90;;;;;;5065295;28;20029;-35
2022/12/08 08:08:28;;;;;;;0.80;0.47;;;3.50;99.90;;;;;;5070899;28;20033;-35
2022/12/08 08:10:53;;;;;;;0.30;0.30;;;3.50;99.90;;;;;;5056485;28;20039;-35
2022/12/08 08:13:19;;;;;;;1.80;0.63;;;3.50;99.90;;;;;;5052753;28;20029;-43
2022/12/08 08:15:44;;;;;;;2.08;0.50;;;3.50;99.90;;;;;;5051706;28;20025;-36
2022/12/08 08:18:10;;;;;;;0.35;0.30;;;3.50;99.90;;;;;;5066242;28;20032;-32
2022/12/08 08:20:36;;;;;;;0.55;0.43;;;3.50;99.90;;;;;;5072427;28;20465;-33
2022/12/08 08:23:01;;;;;;;4.55;0.28;;;3.60;99.90;;;;;;5054553;28;20496;-33
2022/12/08 08:25:27;;;;;;;2.95;1.38;;;3.60;99.90;;;;;;5067021;28;20025;-34
2022/12/08 08:27:53;;;;;;;1.17;0.55;;;3.70;99.90;;;;;;5052954;28;20383;-40
2022/12/08 08:30:19;;;;;;;1.55;0.77;;;3.70;99.90;;;;;;5052447;28;20025;-40
2022/12/08 08:32:45;;;;;;;1.75;0.40;;;3.70;99.90;;;;;;5052321;28;20515;-30
2022/12/08 08:35:11;;;;;;;1.55;0.30;;;3.80;99.90;;;;;;5051972;28;20025;-36
2022/12/08 08:37:37;;;;;;;0.50;0.50;;;3.80;99.90;;;;;;5052307;28;20385;-34
2022/12/08 08:40:03;;;;;;;0.63;0.47;;;3.80;99.90;;;;;;5054095;28;20083;-38
2022/12/08 08:42:28;;;;;;;0.75;0.60;;;3.90;99.90;;;;;;5054726;28;20087;-32
2022/12/08 08:44:54;;;;;;;2.88;0.47;;;3.80;99.90;;;;;;5052478;28;20473;-33
2022/12/08 08:47:20;;;;;;;1.05;0.40;;;3.90;99.90;;;;;;5052791;28;20028;-34
2022/12/08 08:49:45;;;;;;;0.50;0.50;;;3.90;99.90;;;;;;5052123;28;20025;-37
2022/12/08 08:52:11;;;;;;;2.42;0.75;;;3.90;99.90;;;;;;5051918;28;20041;-37
2022/12/08 08:54:37;;;;;;;0.60;0.47;;;3.90;99.90;;;;;;5062141;28;20035;-36
2022/12/08 08:57:02;;;;;;;2.35;0.63;;;3.90;99.90;;;;;;5072460;28;20019;-35
2022/12/08 08:59:28;;;;;;;0.82;0.50;;;4.00;99.90;;;;;;5065512;28;20484;-34
2022/12/08 09:01:54;;;;;;;0.82;0.60;;;4.00;99.90;;;;;;5058159;28;20108;-35
2022/12/08 09:04:21;;;;;;;3.53;0.47;;;4.00;99.90;;;;;;5063167;28;20029;-35
2022/12/08 09:06:48;;;;;;;0.57;0.50;;;4.10;99.90;;;;;;5056157;28;20472;-35
2022/12/08 09:09:15;;;;;;;0.70;0.40;;;4.10;99.90;;;;;;5061462;28;20388;-33
2022/12/08 09:11:41;;;;;;;0.50;0.38;;;4.10;99.90;;;;;;5053687;28;20029;-34
2022/12/08 09:14:09;;;;;;;5.75;0.47;;;4.10;99.90;;;;;;5063737;28;20482;-33
2022/12/08 09:16:35;;;;;;;1.85;0.52;;;4.20;99.90;;;;;;5055684;28;20560;-33
2022/12/08 09:19:01;;;;;;;5.93;0.32;;;4.20;99.90;;;;;;5065211;28;20100;-35
2022/12/08 09:21:26;;;;;;;0.38;0.20;;;4.20;99.90;;;;;;5062784;28;20024;-35
2022/12/08 09:23:54;;;;;;;1.33;0.30;;;4.20;99.90;;;;;;5064218;28;20020;-31
2022/12/08 09:26:21;;;;;;;0.10;0.10;;;4.30;99.90;;;;;;5067062;28;20452;-36
2022/12/08 09:28:50;;;;;;;0.20;0.15;;;4.30;99.90;;;;;;5062525;28;20027;-34
2022/12/08 09:31:17;;;;;;;1.00;0.10;;;4.40;99.90;;;;;;5071706;28;20388;-34
2022/12/08 09:33:43;;;;;;;2.30;0.30;;;4.40;99.90;;;;;;5061232;28;20725;-37
2022/12/08 09:36:09;;;;;;;0.35;0.13;;;4.40;99.90;;;;;;5075223;28;20103;-35
2022/12/08 09:38:38;;;;;;;0.20;0.20;;;4.40;99.90;;;;;;5067995;28;20035;-37
2022/12/08 09:41:11;;;;;;;0.15;0.15;;;4.50;99.90;;;;;;5067352;28;20033;-35
2022/12/08 09:44:03;;;;;;;0.65;0.20;;;4.50;99.90;;;;;;5064523;28;20032;-33
2022/12/08 09:46:30;;;;;;;6.32;1.17;;;4.40;99.90;;;;;;5038481;28;20079;-30
2022/12/08 09:48:58;;;;;;;0.60;0.17;;;4.40;99.90;;;;;;5055808;28;20528;-34
2022/12/08 09:51:27;;;;;;;0.55;0.38;;;4.40;99.90;;;;;;5056886;28;20017;-44
2022/12/08 09:54:07;;;;;;;0.08;0.08;;;4.40;99.90;;;;;;5067618;28;20062;-35
2022/12/08 09:56:35;;;;;;;1.65;0.30;;;4.40;99.90;;;;;;5073224;28;20021;-42
2022/12/08 09:59:26;;;;;;;0.77;0.30;;;4.40;99.90;;;;;;5060061;28;20469;-38
2022/12/08 10:01:53;;;;;;;0.85;0.40;;;4.30;99.90;;;;;;5065652;28;20036;-43
2022/12/08 10:04:31;;;;;;;0.90;0.20;;;4.30;99.90;;;;;;5061542;28;20499;-44
2022/12/08 10:06:56;;;;;;;;;;;4.30;99.90;;;;;;5060190;28;20039;-36
2022/12/08 10:09:42;;;;;;;0.30;0.30;;;4.30;99.90;;;;;;5055265;28;19908;-32
2022/12/08 10:12:23;;;;;;;0.52;0.50;;;4.30;99.90;;;;;;5062616;28;20032;-39
2022/12/08 10:14:58;;;;;;;0.70;0.50;;;4.30;99.90;;;;;;5057054;28;20025;-33
2022/12/08 10:17:29;;;;;;;0.77;0.70;;;4.40;99.90;;;;;;5059652;28;20442;-33
2022/12/08 10:19:59;;;;;;;2.28;0.57;;;4.30;99.90;;;;;;5060368;28;20396;-32
2022/12/08 10:22:30;;;;;;;1.17;0.40;;;4.30;99.90;;;;;;5054337;28;20481;-34
2022/12/08 10:25:20;;;;;;;0.95;0.60;;;4.30;99.90;;;;;;5071849;28;20040;-45
2022/12/08 10:27:50;;;;;;;0.65;0.50;;;4.30;99.90;;;;;;5054182;28;20033;-33
2022/12/08 10:30:17;;;;;;;1.52;0.90;;;4.40;99.90;;;;;;5053399;28;20074;-31
2022/12/08 10:32:47;;;;;;;1.65;0.80;;;4.40;99.90;;;;;;5054125;28;20071;-39
2022/12/08 10:35:14;;;;;;;1.60;1.08;;;4.40;99.90;;;;;;5062526;28;20032;-60
2022/12/08 10:37:40;;;;;;;3.75;0.95;;;4.40;99.90;;;;;;5072362;28;20020;-40
2022/12/08 10:40:16;;;;;;;0.65;0.60;;;4.30;99.90;;;;;;5072955;28;20024;-41
2022/12/08 10:42:47;;;;;;;1.45;0.57;;;4.30;99.90;;;;;;5073923;28;20032;-41
2022/12/08 10:45:22;;;;;;;0.98;0.60;;;4.20;99.90;;;;;;5072034;28;20407;-39
2022/12/08 10:48:00;;;;;;;0.52;0.50;;;4.30;99.90;;;;;;5061889;28;20029;-40
2022/12/08 10:50:40;;;;;;;0.65;0.55;;;4.20;99.90;;;;;;5053378;28;20028;-40
2022/12/08 10:53:08;;;;;;;5.45;1.10;;;4.20;99.90;;;;;;5053671;28;20437;-41
2022/12/08 10:55:44;;;;;;;2.17;0.85;;;4.30;99.90;;;;;;5065455;28;20031;-41
2022/12/08 10:58:43;;;;;;;1.08;1.00;;;4.30;99.90;;;;;;5074012;28;20047;-42
2022/12/08 11:01:22;;;;;;;1.83;0.88;;;4.30;99.90;;;;;;5053854;28;20449;-39
2022/12/08 11:03:57;;;;;;;6.65;1.02;;;4.30;99.90;;;;;;5053605;28;20025;-40
2022/12/08 11:06:29;;;;;;;1.73;0.98;;;4.30;99.90;;;;;;5052545;28;20029;-39
2022/12/08 11:09:00;;;;;;;1.85;1.52;;;4.30;99.90;;;;;;5053431;28;20481;-39
2022/12/08 11:11:47;;;;;;;0.95;0.80;;;4.30;99.90;;;;;;5053474;28;20484;-37
2022/12/08 11:14:30;;;;;;;2.88;0.90;;;4.20;99.90;;;;;;5053392;28;20080;-37
2022/12/08 11:17:05;;;;;;;3.45;0.95;;;4.20;99.90;;;;;;5053162;28;20529;-37
2022/12/08 11:19:35;;;;;;;1.52;1.00;;;4.20;99.90;;;;;;5052403;28;20029;-38
2022/12/08 11:22:01;;;;;;;7.43;1.02;;;4.20;99.90;;;;;;5052246;28;20069;-37
2022/12/08 11:24:28;;;;;;;1.35;1.25;;;4.20;99.90;;;;;;5053200;28;20025;-37
2022/12/08 11:27:01;;;;;;;0.90;0.90;;;4.20;99.90;;;;;;5055890;28;20035;-38
2022/12/08 11:29:29;;;;;;;2.03;1.02;;;4.10;99.90;;;;;;5073136;28;20476;-39
2022/12/08 11:32:03;;;;;;;;;;;4.10;99.90;;;;;;5073475;28;20025;-39
2022/12/08 11:35:00;;;;;;;4.32;1.10;;;4.10;99.90;;;;;;5071226;28;19918;-42
2022/12/08 11:37:36;;;;;;;2.67;1.17;;;4.00;99.90;;;;;;5070097;28;20497;-38
2022/12/08 11:40:33;;;;;;;3.35;1.35;;;4.00;99.90;;;;;;5067938;28;20464;-38
2022/12/08 11:43:25;;;;;;;3.50;1.27;;;4.00;99.90;;;;;;5052716;28;20455;-38
2022/12/08 11:45:59;;;;;;;2.33;1.38;;;4.10;99.90;;;;;;5052773;28;20493;-38
2022/12/08 11:48:37;;;;;;;2.25;1.70;;;4.00;99.90;;;;;;5063056;28;20100;-39
2022/12/08 11:51:23;;;;;;;3.88;1.88;;;4.00;99.90;;;;;;5052695;28;20504;-37
2022/12/08 11:54:01;;;;;;;2.22;1.73;;;4.00;99.90;;;;;;5051747;28;20209;-74
2022/12/08 11:56:36;;;;;;;2.88;1.52;;;4.10;99.90;;;;;;5068210;28;20471;-52
2022/12/08 11:59:11;;;;;;;4.55;2.42;;;4.10;99.90;;;;;;5072836;28;20473;-30
2022/12/08 12:01:36;;;;;;;2.30;2.10;;;4.10;99.90;;;;;;5072879;28;20477;-32
2022/12/08 12:04:26;;;;;;;1.77;1.67;;;4.10;99.90;;;;;;5061805;28;20032;-33
2022/12/08 12:06:52;;;;;;;3.85;1.77;;;4.20;99.90;;;;;;5052461;28;20082;-30
2022/12/08 12:09:48;;;;;;;2.53;1.90;;;4.10;99.90;;;;;;5053937;28;20477;-36
2022/12/08 12:12:39;;;;;;;1.85;1.73;;;4.10;99.90;;;;;;5054801;28;20568;-30
2022/12/08 12:15:41;;;;;;;6.78;3.25;;;4.10;99.90;;;;;;5052585;28;20029;-30
2022/12/08 12:18:19;;;;;;;1.90;1.67;;;3.90;99.90;;;;;;5054641;28;20028;-34
2022/12/08 12:21:00;;;;;;;1.60;1.45;;;4.00;99.90;;;;;;5053731;28;20546;-36
2022/12/08 12:23:34;;;;;;;2.10;1.58;;;4.00;99.90;;;;;;5059000;28;20107;-33
2022/12/08 12:26:02;;;;;;;4.63;1.73;;;3.90;99.90;;;;;;5063029;28;20029;-39
2022/12/08 12:28:51;;;;;;;5.85;2.47;;;4.00;99.90;;;;;;5059349;28;20033;-33
2022/12/08 12:31:21;;;;;;;1.90;1.58;;;4.00;99.90;;;;;;5052238;28;20032;-30
2022/12/08 12:33:49;;;;;;;3.65;1.50;;;4.10;99.90;;;;;;5058613;28;20021;-32
2022/12/08 12:36:16;;;;;;;2.22;1.70;;;4.20;99.90;;;;;;5072416;28;20066;-33
2022/12/08 12:39:00;;;;;;;2.40;1.60;;;4.30;99.90;;;;;;5055075;28;20148;-33
2022/12/08 12:41:42;;;;;;;2.97;1.67;;;4.30;99.90;;;;;;5063999;28;20435;-34
2022/12/08 12:44:13;;;;;;;1.40;1.30;;;4.30;99.90;;;;;;5072667;28;20029;-31
2022/12/08 12:46:45;;;;;;;3.40;1.48;;;4.30;99.90;;;;;;5070008;28;20044;-45
2022/12/08 12:49:39;;;;;;;1.40;1.30;;;4.40;99.90;;;;;;5063212;28;20060;-40
2022/12/08 12:52:19;;;;;;;1.50;1.40;;;4.40;99.90;;;;;;5070591;28;20028;-34
2022/12/08 12:54:51;;;;;;;1.58;1.30;;;4.50;99.90;;;;;;5063059;28;20123;-32
2022/12/08 12:57:17;;;;;;;1.38;1.23;;;4.50;99.90;;;;;;5056123;28;20081;-31
2022/12/08 12:59:52;;;;;;;1.40;1.30;;;4.60;99.90;;;;;;5055946;28;20047;-31
2022/12/08 13:02:30;;;;;;;1.17;1.00;;;4.70;99.90;;;;;;5059664;28;20020;-37
2022/12/08 13:05:07;;;;;;;2.53;1.42;;;4.80;99.90;;;;;;5063806;28;20041;-34
2022/12/08 13:07:42;;;;;;;1.25;1.10;;;4.70;99.90;;;;;;5056065;28;20159;-34
2022/12/08 13:10:16;;;;;;;2.85;1.70;;;4.80;99.90;;;;;;5069128;28;20027;-43
2022/12/08 13:12:44;;;;;;;1.40;1.27;;;4.90;99.90;;;;;;5074293;28;20408;-36
2022/12/08 13:15:18;;;;;;;3.53;1.23;;;4.90;99.90;;;;;;5074205;28;20170;-32
2022/12/08 13:17:47;;;;;;;1.30;1.20;;;4.90;99.90;;;;;;5073803;28;20025;-31
2022/12/08 13:20:24;;;;;;;2.45;1.40;;;4.90;99.90;;;;;;5075542;28;20077;-31